createdAt,value
2023-10-03T00:00:37.818Z,13.26
2023-10-03T00:03:04.924Z,13.24
2023-10-03T00:05:31.799Z,13.20
2023-10-03T00:08:01.110Z,13.17
2023-10-03T00:10:28.159Z,13.15
2023-10-03T00:12:55.230Z,13.10
2023-10-03T00:15:24.344Z,13.08
2023-10-03T00:17:51.463Z,13.06
2023-10-03T00:20:18.550Z,13.04
2023-10-03T00:22:47.800Z,13.01
2023-10-03T00:25:15.796Z,12.98
2023-10-03T00:27:42.138Z,12.95
2023-10-03T00:30:08.976Z,12.94
2023-10-03T00:32:35.450Z,12.93
2023-10-03T00:35:01.841Z,12.90
2023-10-03T00:37:28.284Z,12.88
2023-10-03T00:39:54.614Z,12.84
2023-10-03T00:42:20.950Z,12.82
2023-10-03T00:44:47.347Z,12.81
2023-10-03T00:47:13.792Z,12.78
2023-10-03T00:49:40.552Z,12.75
2023-10-03T00:52:06.981Z,12.72
2023-10-03T00:54:33.314Z,12.70
2023-10-03T00:56:59.741Z,12.68
2023-10-03T00:59:26.084Z,12.67
2023-10-03T01:01:52.427Z,12.65
2023-10-03T01:04:18.933Z,12.63
2023-10-03T01:06:45.381Z,12.60
2023-10-03T01:09:11.813Z,12.60
2023-10-03T01:11:38.284Z,12.58
2023-10-03T01:14:04.663Z,12.56
2023-10-03T01:16:31.220Z,12.54
2023-10-03T01:18:58.340Z,12.50
2023-10-03T01:21:24.662Z,12.49
2023-10-03T01:23:51.022Z,12.47
2023-10-03T01:26:17.523Z,12.46
2023-10-03T01:28:43.855Z,12.44
2023-10-03T01:31:10.346Z,12.43
2023-10-03T01:33:36.905Z,12.43
2023-10-03T01:36:03.662Z,12.44
2023-10-03T01:38:30.137Z,12.46
2023-10-03T01:40:58.273Z,12.47
2023-10-03T01:43:25.403Z,12.49
2023-10-03T01:45:51.809Z,12.50
2023-10-03T01:48:18.444Z,12.50
2023-10-03T01:50:44.996Z,12.51
2023-10-03T01:53:12.127Z,12.52
2023-10-03T01:55:39.125Z,12.51
2023-10-03T01:58:06.049Z,12.51
2023-10-03T02:00:32.704Z,12.50
2023-10-03T02:03:00.951Z,12.51
2023-10-03T02:05:27.466Z,12.49
2023-10-03T02:07:55.112Z,12.49
2023-10-03T02:10:21.872Z,12.49
2023-10-03T02:12:48.332Z,12.48
2023-10-03T02:15:14.695Z,12.49
2023-10-03T02:17:41.278Z,12.48
2023-10-03T02:20:08.307Z,12.48
2023-10-03T02:22:34.647Z,12.48
2023-10-03T02:25:02.643Z,12.47
2023-10-03T02:27:29.027Z,12.48
2023-10-03T02:29:55.380Z,12.47
2023-10-03T02:32:21.853Z,12.47
2023-10-03T02:34:48.264Z,12.46
2023-10-03T02:37:14.620Z,12.45
2023-10-03T02:39:41.072Z,12.44
2023-10-03T02:42:07.489Z,12.43
2023-10-03T02:44:33.854Z,12.43
2023-10-03T02:47:00.283Z,12.42
2023-10-03T02:49:26.593Z,12.40
2023-10-03T02:51:52.933Z,12.40
2023-10-03T02:54:19.363Z,12.38
2023-10-03T02:56:45.751Z,12.36
2023-10-03T02:59:12.155Z,12.34
2023-10-03T03:01:38.594Z,12.33
2023-10-03T03:04:05.295Z,12.32
2023-10-03T03:06:31.853Z,12.32
2023-10-03T03:08:58.289Z,12.31
2023-10-03T03:11:24.890Z,12.30
2023-10-03T03:13:51.265Z,12.29
2023-10-03T03:16:17.654Z,12.28
2023-10-03T03:18:45.127Z,12.28
2023-10-03T03:21:16.914Z,12.26
2023-10-03T03:23:45.482Z,12.26
2023-10-03T03:26:12.664Z,12.25
2023-10-03T03:28:43.123Z,12.24
2023-10-03T03:31:09.742Z,12.24
2023-10-03T03:33:36.256Z,12.21
2023-10-03T03:36:02.876Z,12.21
2023-10-03T03:38:29.243Z,12.19
2023-10-03T03:40:59.855Z,12.19
2023-10-03T03:43:26.340Z,12.18
2023-10-03T03:45:52.940Z,12.16
2023-10-03T03:48:19.609Z,12.15
2023-10-03T03:50:46.176Z,12.12
2023-10-03T03:53:12.541Z,12.09
2023-10-03T03:55:39.047Z,12.07
2023-10-03T03:58:05.969Z,12.03
2023-10-03T04:00:32.297Z,12.00
2023-10-03T04:03:01.767Z,11.98
2023-10-03T04:05:28.412Z,11.97
2023-10-03T04:07:54.738Z,11.96
2023-10-03T04:10:21.193Z,11.94
2023-10-03T04:12:47.554Z,11.92
2023-10-03T04:15:14.226Z,11.90
2023-10-03T04:17:41.430Z,11.89
2023-10-03T04:20:11.747Z,11.87
2023-10-03T04:22:38.277Z,11.86
2023-10-03T04:25:05.230Z,11.83
2023-10-03T04:27:31.574Z,11.80
2023-10-03T04:29:57.949Z,11.77
2023-10-03T04:32:24.423Z,11.75
2023-10-03T04:34:50.834Z,11.72
2023-10-03T04:37:17.320Z,11.72
2023-10-03T04:39:43.778Z,11.71
2023-10-03T04:42:10.262Z,11.69
2023-10-03T04:44:36.821Z,11.68
2023-10-03T04:47:04.756Z,11.67
2023-10-03T04:49:31.318Z,11.66
2023-10-03T04:51:57.710Z,11.63
2023-10-03T04:54:24.042Z,11.62
2023-10-03T04:56:50.476Z,11.61
2023-10-03T04:59:16.943Z,11.61
2023-10-03T05:01:43.449Z,11.61
2023-10-03T05:04:09.965Z,11.60
2023-10-03T05:06:36.547Z,11.61
2023-10-03T05:09:03.271Z,11.62
2023-10-03T05:11:29.752Z,11.64
2023-10-03T05:13:56.226Z,11.66
2023-10-03T05:16:22.601Z,11.69
2023-10-03T05:18:48.993Z,11.74
2023-10-03T05:21:15.453Z,11.78
2023-10-03T05:23:41.817Z,11.82
2023-10-03T05:26:08.164Z,11.85
2023-10-03T05:28:37.429Z,11.90
2023-10-03T05:31:04.162Z,11.95
2023-10-03T05:33:30.592Z,11.99
2023-10-03T05:35:57.194Z,12.03
2023-10-03T05:38:23.728Z,12.07
2023-10-03T05:40:50.104Z,12.12
2023-10-03T05:43:18.734Z,12.17
2023-10-03T05:45:45.545Z,12.22
2023-10-03T05:48:12.092Z,12.27
2023-10-03T05:50:38.588Z,12.33
2023-10-03T05:53:05.056Z,12.39
2023-10-03T05:55:31.398Z,12.47
2023-10-03T05:57:57.788Z,12.54
2023-10-03T06:00:24.568Z,12.64
2023-10-03T06:02:51.149Z,12.73
2023-10-03T06:05:17.701Z,12.84
2023-10-03T06:07:45.496Z,12.96
2023-10-03T06:10:12.336Z,13.01
2023-10-03T06:12:38.998Z,13.07
2023-10-03T06:15:06.271Z,13.14
2023-10-03T06:17:33.419Z,13.24
2023-10-03T06:19:59.874Z,13.33
2023-10-03T06:22:26.243Z,13.41
2023-10-03T06:24:52.656Z,13.46
2023-10-03T06:27:18.979Z,13.54
2023-10-03T06:29:45.416Z,13.57
2023-10-03T06:32:11.827Z,13.62
2023-10-03T06:34:38.193Z,13.66
2023-10-03T06:37:04.563Z,13.70
2023-10-03T06:39:31.105Z,13.74
2023-10-03T06:41:57.589Z,13.76
2023-10-03T06:44:24.242Z,13.79
2023-10-03T06:46:50.878Z,13.85
2023-10-03T06:49:17.279Z,13.92
2023-10-03T06:51:46.302Z,14.01
2023-10-03T06:54:12.649Z,14.15
2023-10-03T06:56:39.127Z,14.30
2023-10-03T06:59:05.646Z,14.49
2023-10-03T07:01:31.989Z,14.64
2023-10-03T07:03:58.429Z,14.79
2023-10-03T07:06:25.342Z,14.89
2023-10-03T07:08:52.013Z,14.96
2023-10-03T07:11:18.480Z,15.05
2023-10-03T07:13:44.974Z,15.11
2023-10-03T07:16:11.540Z,15.18
2023-10-03T07:18:39.097Z,15.20
2023-10-03T07:21:05.586Z,15.24
2023-10-03T07:23:32.358Z,15.30
2023-10-03T07:25:58.756Z,15.35
2023-10-03T07:28:25.187Z,15.45
2023-10-03T07:30:51.777Z,15.57
2023-10-03T07:33:18.303Z,15.69
2023-10-03T07:35:44.772Z,15.85
2023-10-03T07:38:11.635Z,15.99
2023-10-03T07:40:41.861Z,16.12
2023-10-03T07:43:09.171Z,16.26
2023-10-03T07:45:35.443Z,16.37
2023-10-03T07:48:01.976Z,16.49
2023-10-03T07:50:28.401Z,16.63
2023-10-03T07:52:55.212Z,16.81
2023-10-03T07:55:21.732Z,16.96
2023-10-03T07:57:48.149Z,17.13
2023-10-03T08:00:14.829Z,17.28
2023-10-03T08:02:41.372Z,17.44
2023-10-03T08:05:08.425Z,17.61
2023-10-03T08:07:34.808Z,17.75
2023-10-03T08:10:01.256Z,17.92
2023-10-03T08:12:27.611Z,18.06
2023-10-03T08:14:54.297Z,18.23
2023-10-03T08:17:21.091Z,18.36
2023-10-03T08:19:50.307Z,18.49
2023-10-03T08:22:16.926Z,18.59
2023-10-03T08:24:43.266Z,18.68
2023-10-03T08:27:09.632Z,18.83
2023-10-03T08:29:36.099Z,18.98
2023-10-03T08:32:02.489Z,19.13
2023-10-03T08:34:30.728Z,19.28
2023-10-03T08:36:58.612Z,19.47
2023-10-03T08:39:25.305Z,19.65
2023-10-03T08:42:07.069Z,19.80
2023-10-03T08:44:37.346Z,19.96
2023-10-03T08:47:07.838Z,20.12
2023-10-03T08:49:38.993Z,20.27
2023-10-03T08:52:08.777Z,20.42
2023-10-03T08:54:37.824Z,20.58
2023-10-03T08:57:05.422Z,20.73
2023-10-03T08:59:32.762Z,20.89
2023-10-03T09:02:08.040Z,21.05
2023-10-03T09:04:35.147Z,21.21
2023-10-03T09:07:01.530Z,21.37
2023-10-03T09:09:28.598Z,21.55
2023-10-03T09:12:00.507Z,21.70
2023-10-03T09:14:26.890Z,21.86
2023-10-03T09:16:53.395Z,22.04
2023-10-03T09:19:20.262Z,22.20
2023-10-03T09:21:46.712Z,22.35
2023-10-03T09:24:13.188Z,22.49
2023-10-03T09:26:44.769Z,22.65
2023-10-03T09:29:11.187Z,22.78
2023-10-03T09:31:37.651Z,22.86
2023-10-03T09:34:04.163Z,22.94
2023-10-03T09:36:31.383Z,23.05
2023-10-03T09:38:57.814Z,23.20
2023-10-03T09:41:25.364Z,23.30
2023-10-03T09:43:53.354Z,23.43
2023-10-03T09:46:20.019Z,23.55
2023-10-03T09:48:46.455Z,23.71
2023-10-03T09:51:13.303Z,23.94
2023-10-03T09:53:41.179Z,24.13
2023-10-03T09:56:07.816Z,24.30
2023-10-03T09:58:34.414Z,24.45
2023-10-03T10:01:01.296Z,24.65
2023-10-03T10:03:31.925Z,24.82
2023-10-03T10:06:04.570Z,24.97
2023-10-03T10:09:12.597Z,25.10
2023-10-03T10:12:12.284Z,25.19
2023-10-03T10:15:00.828Z,25.37
2023-10-03T10:17:47.648Z,25.45
2023-10-03T10:20:17.875Z,25.43
2023-10-03T10:22:59.241Z,25.48
2023-10-03T10:25:29.269Z,25.55
2023-10-03T10:28:07.603Z,25.68
2023-10-03T10:30:54.739Z,25.72
2023-10-03T10:33:24.847Z,25.84
2023-10-03T10:36:01.180Z,25.90
2023-10-03T10:38:33.658Z,25.93
2023-10-03T10:41:12.290Z,26.04
2023-10-03T10:44:13.671Z,26.21
2023-10-03T10:46:43.737Z,26.27
2023-10-03T10:49:32.656Z,26.20
2023-10-03T10:51:59.526Z,26.26
2023-10-03T10:54:25.787Z,26.27
2023-10-03T10:57:06.107Z,26.22
2023-10-03T10:59:34.198Z,26.29
2023-10-03T11:02:00.783Z,26.25
2023-10-03T11:04:28.695Z,26.30
2023-10-03T11:06:55.236Z,26.17
2023-10-03T11:09:22.516Z,26.18
2023-10-03T11:11:48.887Z,26.13
2023-10-03T11:14:31.133Z,26.20
2023-10-03T11:16:57.860Z,26.23
2023-10-03T11:19:24.440Z,26.41
2023-10-03T11:21:51.302Z,26.49
2023-10-03T11:24:18.590Z,26.54
2023-10-03T11:26:47.075Z,26.66
2023-10-03T11:29:14.100Z,26.74
2023-10-03T11:31:40.632Z,26.88
2023-10-03T11:34:07.818Z,27.05
2023-10-03T11:36:44.944Z,27.30
2023-10-03T11:39:12.638Z,27.48
2023-10-03T11:41:39.167Z,27.64
2023-10-03T11:44:16.983Z,27.85
2023-10-03T11:46:43.384Z,28.27
2023-10-03T11:49:09.831Z,28.40
2023-10-03T11:51:36.568Z,28.44
2023-10-03T11:54:02.967Z,28.45
2023-10-03T11:56:29.433Z,28.51
2023-10-03T11:58:55.906Z,28.47
2023-10-03T12:01:22.330Z,28.47
2023-10-03T12:03:48.970Z,28.60
2023-10-03T12:06:15.354Z,28.48
2023-10-03T12:08:41.715Z,28.51
2023-10-03T12:11:08.281Z,28.45
2023-10-03T12:13:34.612Z,28.43
2023-10-03T12:16:00.974Z,28.54
2023-10-03T12:18:27.602Z,28.45
2023-10-03T12:20:54.939Z,28.39
2023-10-03T12:23:21.375Z,28.58
2023-10-03T12:25:47.721Z,28.57
2023-10-03T12:28:14.132Z,28.55
2023-10-03T12:30:40.578Z,28.55
2023-10-03T12:33:07.034Z,28.47
2023-10-03T12:35:33.569Z,28.32
2023-10-03T12:38:00.214Z,28.00
2023-10-03T12:40:26.610Z,27.83
2023-10-03T12:42:53.177Z,27.46
2023-10-03T12:45:21.267Z,27.39
2023-10-03T12:47:50.287Z,27.40
2023-10-03T12:50:20.889Z,27.40
2023-10-03T12:52:47.321Z,27.39
2023-10-03T12:55:13.721Z,27.34
2023-10-03T12:57:40.143Z,27.30
2023-10-03T13:00:07.335Z,27.19
2023-10-03T13:02:34.295Z,27.04
2023-10-03T13:05:00.838Z,26.76
2023-10-03T13:07:27.231Z,26.70
2023-10-03T13:09:53.626Z,26.60
2023-10-03T13:12:20.090Z,26.53
2023-10-03T13:14:46.468Z,26.41
2023-10-03T13:17:12.797Z,26.45
2023-10-03T13:19:39.167Z,26.48
2023-10-03T13:22:05.691Z,26.53
2023-10-03T13:24:32.146Z,26.52
2023-10-03T13:26:58.590Z,26.46
2023-10-03T13:29:25.130Z,26.40
2023-10-03T13:31:51.516Z,26.36
2023-10-03T13:34:17.977Z,26.36
2023-10-03T13:36:44.468Z,26.25
2023-10-03T13:39:11.176Z,26.21
2023-10-03T13:41:37.798Z,26.05
2023-10-03T13:44:04.793Z,26.07
2023-10-03T13:46:34.497Z,25.99
2023-10-03T13:49:01.073Z,25.84
2023-10-03T13:51:28.011Z,25.76
2023-10-03T13:53:54.396Z,25.64
2023-10-03T13:56:20.796Z,25.60
2023-10-03T13:58:47.123Z,25.65
2023-10-03T14:01:14.116Z,25.63
2023-10-03T14:03:41.856Z,25.65
2023-10-03T14:06:10.681Z,25.57
2023-10-03T14:08:37.254Z,25.63
2023-10-03T14:11:03.645Z,25.56
2023-10-03T14:13:30.006Z,25.58
2023-10-03T14:15:56.419Z,25.56
2023-10-03T14:18:22.891Z,25.30
2023-10-03T14:20:49.317Z,25.23
2023-10-03T14:23:15.839Z,25.06
2023-10-03T14:25:42.286Z,24.98
2023-10-03T14:28:08.880Z,25.00
2023-10-03T14:30:35.369Z,24.90
2023-10-03T14:33:01.814Z,24.80
2023-10-03T14:35:28.331Z,24.67
2023-10-03T14:37:54.774Z,24.74
2023-10-03T14:40:21.307Z,24.69
2023-10-03T14:42:47.714Z,24.66
2023-10-03T14:45:14.456Z,24.57
2023-10-03T14:47:41.205Z,24.52
2023-10-03T14:50:08.375Z,24.55
2023-10-03T14:52:35.438Z,24.57
2023-10-03T14:55:02.064Z,24.67
2023-10-03T14:57:28.456Z,24.72
2023-10-03T14:59:54.808Z,24.75
2023-10-03T15:02:21.303Z,24.79
2023-10-03T15:04:47.679Z,24.73
2023-10-03T15:07:17.200Z,24.64
2023-10-03T15:09:44.050Z,24.49
2023-10-03T15:12:10.360Z,24.41
2023-10-03T15:14:36.720Z,24.30
2023-10-03T15:17:03.077Z,24.30
2023-10-03T15:19:29.765Z,24.18
2023-10-03T15:21:57.315Z,24.10
2023-10-03T15:24:23.831Z,23.99
2023-10-03T15:26:50.215Z,23.89
2023-10-03T15:29:17.041Z,23.84
2023-10-03T15:31:43.632Z,23.81
2023-10-03T15:34:10.052Z,23.77
2023-10-03T15:36:36.423Z,23.74
2023-10-03T15:39:06.728Z,23.69
2023-10-03T15:41:33.100Z,23.64
2023-10-03T15:43:59.456Z,23.51
2023-10-03T15:46:26.046Z,23.50
2023-10-03T15:48:52.436Z,23.49
2023-10-03T15:51:18.844Z,23.36
2023-10-03T15:53:46.953Z,23.37
2023-10-03T15:56:15.244Z,23.38
2023-10-03T15:58:41.996Z,23.39
2023-10-03T16:01:13.223Z,23.23
2023-10-03T16:03:39.756Z,23.23
2023-10-03T16:06:06.385Z,23.32
2023-10-03T16:08:32.932Z,23.34
2023-10-03T16:10:59.300Z,23.29
2023-10-03T16:13:25.655Z,23.23
2023-10-03T16:15:52.150Z,23.17
2023-10-03T16:18:18.757Z,23.17
2023-10-03T16:20:45.420Z,23.09
2023-10-03T16:23:11.976Z,23.04
2023-10-03T16:25:38.549Z,23.04
2023-10-03T16:28:05.979Z,23.02
2023-10-03T16:30:33.287Z,22.94
2023-10-03T16:33:00.310Z,22.99
2023-10-03T16:35:26.763Z,22.95
2023-10-03T16:37:53.236Z,22.87
2023-10-03T16:40:21.204Z,22.84
2023-10-03T16:42:47.693Z,22.77
2023-10-03T16:45:17.691Z,22.18
2023-10-03T16:47:45.250Z,21.09
2023-10-03T16:50:11.953Z,19.85
2023-10-03T16:52:39.709Z,19.18
2023-10-03T16:55:06.474Z,18.79
2023-10-03T16:57:33.664Z,18.14
2023-10-03T17:00:00.310Z,17.83
2023-10-03T17:02:26.766Z,17.62
2023-10-03T17:04:53.123Z,17.38
2023-10-03T17:07:19.474Z,17.31
2023-10-03T17:09:45.964Z,17.22
2023-10-03T17:12:12.774Z,17.18
2023-10-03T17:14:39.184Z,17.12
2023-10-03T17:17:05.719Z,17.05
2023-10-03T17:19:32.134Z,17.07
2023-10-03T17:21:58.485Z,16.97
2023-10-03T17:24:24.860Z,16.87
2023-10-03T17:26:51.271Z,16.80
2023-10-03T17:29:17.704Z,16.68
2023-10-03T17:31:44.084Z,16.52
2023-10-03T17:34:11.259Z,16.35
2023-10-03T17:36:37.767Z,16.21
2023-10-03T17:39:04.377Z,16.12
2023-10-03T17:41:30.880Z,16.06
2023-10-03T17:43:57.340Z,15.96
2023-10-03T17:46:23.759Z,15.87
2023-10-03T17:48:50.170Z,15.71
2023-10-03T17:51:16.630Z,15.68
2023-10-03T17:53:42.981Z,15.65
2023-10-03T17:56:10.327Z,15.58
2023-10-03T17:58:36.682Z,15.52
2023-10-03T18:01:03.210Z,15.45
2023-10-03T18:03:29.642Z,15.44
2023-10-03T18:05:56.161Z,15.47
2023-10-03T18:08:22.612Z,15.41
2023-10-03T18:10:49.000Z,15.38
2023-10-03T18:13:15.386Z,15.37
2023-10-03T18:15:41.715Z,15.34
2023-10-03T18:18:08.153Z,15.33
2023-10-03T18:20:34.670Z,15.26
2023-10-03T18:23:01.160Z,15.21
2023-10-03T18:25:27.601Z,15.22
2023-10-03T18:27:54.015Z,15.21
2023-10-03T18:30:20.409Z,15.22
2023-10-03T18:32:46.897Z,15.22
2023-10-03T18:35:13.750Z,15.14
2023-10-03T18:37:40.607Z,15.15
2023-10-03T18:40:09.661Z,15.16
2023-10-03T18:42:39.045Z,15.09
2023-10-03T18:45:06.145Z,15.09
2023-10-03T18:47:32.667Z,15.08
2023-10-03T18:49:59.044Z,15.02
2023-10-03T18:52:25.423Z,14.95
2023-10-03T18:54:51.835Z,14.92
2023-10-03T18:57:18.280Z,14.84
2023-10-03T18:59:45.037Z,14.76
2023-10-03T19:02:11.509Z,14.58
2023-10-03T19:04:38.196Z,14.50
2023-10-03T19:07:04.722Z,14.37
2023-10-03T19:09:31.299Z,14.32
2023-10-03T19:11:57.798Z,14.23
2023-10-03T19:14:24.217Z,14.21
2023-10-03T19:16:50.687Z,14.23
2023-10-03T19:19:17.160Z,14.20
2023-10-03T19:21:43.596Z,14.13
2023-10-03T19:24:09.989Z,14.10
2023-10-03T19:26:36.628Z,14.03
2023-10-03T19:29:03.442Z,14.02
2023-10-03T19:31:30.168Z,13.97
2023-10-03T19:33:56.600Z,13.89
2023-10-03T19:36:23.136Z,13.90
2023-10-03T19:38:50.085Z,13.83
2023-10-03T19:41:16.810Z,13.80
2023-10-03T19:43:45.013Z,13.78
2023-10-03T19:46:21.708Z,13.75
2023-10-03T19:48:48.680Z,13.76
2023-10-03T19:51:15.267Z,13.80
2023-10-03T19:53:41.878Z,13.80
2023-10-03T19:56:08.317Z,13.88
2023-10-03T19:58:34.975Z,13.93
2023-10-03T20:01:02.293Z,13.94
2023-10-03T20:03:29.144Z,13.92
2023-10-03T20:05:55.600Z,13.86
2023-10-03T20:08:22.111Z,13.86
2023-10-03T20:10:48.501Z,13.86
2023-10-03T20:13:14.974Z,13.83
2023-10-03T20:15:41.387Z,13.85
2023-10-03T20:18:07.957Z,13.92
2023-10-03T20:20:34.352Z,13.91
2023-10-03T20:23:01.711Z,13.91
2023-10-03T20:25:27.990Z,13.92
2023-10-03T20:27:54.356Z,13.90
2023-10-03T20:30:20.723Z,13.91
2023-10-03T20:32:47.226Z,13.93
2023-10-03T20:35:13.752Z,13.91
2023-10-03T20:37:40.169Z,13.91
2023-10-03T20:40:08.136Z,13.90
2023-10-03T20:42:34.553Z,13.92
2023-10-03T20:45:00.892Z,13.95
2023-10-03T20:47:27.359Z,13.94
2023-10-03T20:49:53.775Z,13.92
2023-10-03T20:52:20.377Z,13.92
2023-10-03T20:54:47.246Z,13.90
2023-10-03T20:57:13.947Z,13.84
2023-10-03T20:59:40.373Z,13.80
2023-10-03T21:02:06.763Z,13.77
2023-10-03T21:04:33.299Z,13.76
2023-10-03T21:06:59.649Z,13.72
2023-10-03T21:09:26.046Z,13.71
2023-10-03T21:11:52.590Z,13.73
2023-10-03T21:14:18.967Z,13.79
2023-10-03T21:16:45.352Z,13.85
2023-10-03T21:19:12.023Z,13.84
2023-10-03T21:21:38.355Z,13.85
2023-10-03T21:24:04.977Z,13.85
2023-10-03T21:26:31.431Z,13.80
2023-10-03T21:28:57.945Z,13.82
2023-10-03T21:31:24.403Z,13.84
2023-10-03T21:33:50.981Z,13.84
2023-10-03T21:36:19.026Z,13.79
2023-10-03T21:38:48.207Z,13.73
2023-10-03T21:41:14.839Z,13.75
2023-10-03T21:43:41.346Z,13.70
2023-10-03T21:46:08.610Z,13.64
2023-10-03T21:48:35.661Z,13.61
2023-10-03T21:51:03.531Z,13.60
2023-10-03T21:53:31.414Z,13.58
2023-10-03T21:55:57.814Z,13.56
2023-10-03T21:58:24.709Z,13.55
2023-10-03T22:00:51.042Z,13.51
2023-10-03T22:03:17.647Z,13.49
2023-10-03T22:05:44.521Z,13.45
2023-10-03T22:08:11.409Z,13.41
2023-10-03T22:10:38.196Z,13.32
2023-10-03T22:13:05.046Z,13.25
2023-10-03T22:15:31.449Z,13.20
2023-10-03T22:17:58.012Z,13.15
2023-10-03T22:20:24.468Z,13.16
2023-10-03T22:22:50.805Z,13.12
2023-10-03T22:25:17.408Z,13.09
2023-10-03T22:27:43.743Z,13.07
2023-10-03T22:30:10.776Z,13.08
2023-10-03T22:32:37.226Z,13.08
2023-10-03T22:35:03.965Z,13.07
2023-10-03T22:37:30.314Z,13.10
2023-10-03T22:39:56.715Z,13.12
2023-10-03T22:42:23.259Z,13.15
2023-10-03T22:44:49.609Z,13.18
2023-10-03T22:47:16.077Z,13.16
2023-10-03T22:49:42.574Z,13.13
2023-10-03T22:52:08.911Z,13.10
2023-10-03T22:54:35.294Z,13.09
2023-10-03T22:57:01.896Z,13.09
2023-10-03T22:59:28.254Z,13.05
2023-10-03T23:01:54.619Z,13.03
2023-10-03T23:04:21.277Z,13.01
2023-10-03T23:06:47.650Z,13.00
2023-10-03T23:09:14.553Z,13.00
2023-10-03T23:11:42.234Z,12.99
2023-10-03T23:14:08.700Z,12.95
2023-10-03T23:16:35.077Z,12.96
2023-10-03T23:19:01.628Z,12.93
2023-10-03T23:21:28.221Z,12.89
2023-10-03T23:23:54.580Z,12.83
2023-10-03T23:26:20.906Z,12.77
2023-10-03T23:28:47.380Z,12.73
2023-10-03T23:31:13.744Z,12.71
2023-10-03T23:33:40.125Z,12.68
2023-10-03T23:36:06.774Z,12.66
2023-10-03T23:38:33.167Z,12.63
2023-10-03T23:40:59.658Z,12.57
2023-10-03T23:43:26.047Z,12.52
2023-10-03T23:45:52.641Z,12.46
2023-10-03T23:48:19.268Z,12.43
2023-10-03T23:50:45.669Z,12.41
2023-10-03T23:53:12.013Z,12.36
2023-10-03T23:55:38.533Z,12.33
2023-10-03T23:58:05.002Z,12.30
